Richfield, Minnesota
Current Conditions -  °F | °C
As of 2:53 PM on Friday 31 Oct 2014 (Local Time) from KMSP Reporting Station
Clear Clear  
Wind Chill: 33°   Ceiling: Unl
Heat Index: 39°   Visibility: 10mi
Dew Point: 16°   Wind: 9mph
Humidity: 39%   Direction: 340°NNW
Pressure: 30.51"   Gusts: NA
Location:  44.88°N, 93.27°W
Report Text: KMSP 311953Z 34008KT 10SM CLR 04/M09 A3051 RMK AO2 SLP341 T00391089
Loading
Personal Weather Stations






























Interactive Weather Map
Tropical Storm Tracking
New forecast layout! Learn more

10-Day Weather Forecast

Advertisements
Track Severe Weather on mobile